createdAt,value
2019-05-23T00:01:57.299Z,12.50
2019-05-23T00:04:27.369Z,12.50
2019-05-23T00:06:57.462Z,12.50
2019-05-23T00:09:25.897Z,12.50
2019-05-23T00:12:02.255Z,12.50
2019-05-23T00:14:39.785Z,12.40
2019-05-23T00:17:11.468Z,12.50
2019-05-23T00:19:40.468Z,12.40
2019-05-23T00:22:11.470Z,12.40
2019-05-23T00:24:42.270Z,12.50
2019-05-23T00:27:12.704Z,12.50
2019-05-23T00:29:43.328Z,12.50
2019-05-23T00:32:14.460Z,12.50
2019-05-23T00:34:43.472Z,12.40
2019-05-23T00:37:12.641Z,12.40
2019-05-23T00:39:43.009Z,12.40
2019-05-23T00:42:12.408Z,12.50
2019-05-23T00:44:41.111Z,12.50
2019-05-23T00:47:09.591Z,12.40
2019-05-23T00:49:38.224Z,12.40
2019-05-23T00:52:08.331Z,12.50
2019-05-23T00:54:37.123Z,12.50
2019-05-23T00:57:07.185Z,12.40
2019-05-23T00:59:35.804Z,12.40
2019-05-23T01:02:06.125Z,12.40
2019-05-23T01:04:34.694Z,12.40
2019-05-23T01:07:04.119Z,12.40
2019-05-23T01:09:32.627Z,12.40
2019-05-23T01:12:02.379Z,12.40
2019-05-23T01:14:31.428Z,12.40
2019-05-23T01:17:00.336Z,12.30
2019-05-23T01:19:29.006Z,12.30
2019-05-23T01:21:59.350Z,12.30
2019-05-23T01:24:32.427Z,12.30
2019-05-23T01:27:02.014Z,12.40
2019-05-23T01:29:37.661Z,12.40
2019-05-23T01:32:18.918Z,12.40
2019-05-23T01:34:47.749Z,12.30
2019-05-23T01:37:17.701Z,12.30
2019-05-23T01:39:46.111Z,12.30
2019-05-23T01:42:16.211Z,12.30
2019-05-23T01:44:44.631Z,12.20
2019-05-23T01:47:13.054Z,12.20
2019-05-23T01:49:42.074Z,12.20
2019-05-23T01:52:11.867Z,12.20
2019-05-23T01:54:40.398Z,12.20
2019-05-23T01:57:09.322Z,12.20
2019-05-23T01:59:38.116Z,12.20
2019-05-23T02:02:06.714Z,12.20
2019-05-23T02:04:35.527Z,12.20
2019-05-23T02:07:03.967Z,12.20
2019-05-23T02:09:32.392Z,12.10
2019-05-23T02:12:01.371Z,12.10
2019-05-23T02:14:30.150Z,12.10
2019-05-23T02:16:59.894Z,12.10
2019-05-23T02:19:29.884Z,12.10
2019-05-23T02:21:58.776Z,12.00
2019-05-23T02:24:27.731Z,12.00
2019-05-23T02:26:56.315Z,12.00
2019-05-23T02:29:26.051Z,12.00
2019-05-23T02:31:54.701Z,12.00
2019-05-23T02:34:24.560Z,11.90
2019-05-23T02:36:54.926Z,11.80
2019-05-23T02:39:31.344Z,11.80
2019-05-23T02:42:17.631Z,11.80
2019-05-23T02:44:46.165Z,11.90
2019-05-23T02:47:24.961Z,11.80
2019-05-23T02:49:55.059Z,11.80
2019-05-23T02:52:35.017Z,11.90
2019-05-23T02:55:05.106Z,11.90
2019-05-23T02:57:33.798Z,11.80
2019-05-23T03:00:07.175Z,11.80
2019-05-23T03:02:47.431Z,11.80
2019-05-23T03:05:17.503Z,11.80
2019-05-23T03:07:46.066Z,11.70
2019-05-23T03:10:16.375Z,11.70
2019-05-23T03:12:46.419Z,11.70
2019-05-23T03:15:16.457Z,11.70
2019-05-23T03:17:49.005Z,11.70
2019-05-23T03:20:19.355Z,11.70
2019-05-23T03:23:06.316Z,11.70
2019-05-23T03:25:39.733Z,11.60
2019-05-23T03:28:08.315Z,11.60
2019-05-23T03:30:38.679Z,11.50
2019-05-23T03:33:11.116Z,11.50
2019-05-23T03:35:56.399Z,11.50
2019-05-23T03:38:25.389Z,11.50
2019-05-23T03:40:54.778Z,11.50
2019-05-23T03:43:23.560Z,11.50
2019-05-23T03:45:53.640Z,11.50
2019-05-23T03:48:23.687Z,11.50
2019-05-23T03:50:52.240Z,11.50
2019-05-23T03:53:21.658Z,11.50
2019-05-23T03:55:50.320Z,11.50
2019-05-23T03:58:18.825Z,11.50
2019-05-23T04:00:58.123Z,11.50
2019-05-23T04:03:28.572Z,11.60
2019-05-23T04:05:57.076Z,11.60
2019-05-23T04:08:27.124Z,11.60
2019-05-23T04:10:56.216Z,11.60
2019-05-23T04:13:25.220Z,11.60
2019-05-23T04:15:54.006Z,11.60
2019-05-23T04:18:22.911Z,11.60
2019-05-23T04:20:51.786Z,11.60
2019-05-23T04:23:21.035Z,11.60
2019-05-23T04:25:49.755Z,11.70
2019-05-23T04:28:18.814Z,11.70
2019-05-23T04:30:47.709Z,11.70
2019-05-23T04:33:16.156Z,11.70
2019-05-23T04:35:44.569Z,11.70
2019-05-23T04:38:12.988Z,11.70
2019-05-23T04:40:41.428Z,11.70
2019-05-23T04:43:09.844Z,11.70
2019-05-23T04:45:39.525Z,11.70
2019-05-23T04:48:08.347Z,11.70
2019-05-23T04:50:37.443Z,11.70
2019-05-23T04:53:06.693Z,11.70
2019-05-23T04:55:36.371Z,11.70
2019-05-23T04:58:05.311Z,11.70
2019-05-23T05:00:34.053Z,11.70
2019-05-23T05:03:02.811Z,11.70
2019-05-23T05:05:31.431Z,11.80
2019-05-23T05:07:59.912Z,11.80
2019-05-23T05:10:29.232Z,11.80
2019-05-23T05:12:58.461Z,11.80
2019-05-23T05:15:26.851Z,11.80
2019-05-23T05:17:55.297Z,11.80
2019-05-23T05:20:23.738Z,11.80
2019-05-23T05:22:53.231Z,11.90
2019-05-23T05:25:21.683Z,11.90
2019-05-23T05:27:50.173Z,11.90
2019-05-23T05:30:18.608Z,12.00
2019-05-23T05:32:47.538Z,12.10
2019-05-23T05:35:16.315Z,12.40
2019-05-23T05:37:44.718Z,13.10
2019-05-23T05:40:13.375Z,13.40
2019-05-23T05:42:41.779Z,13.80
2019-05-23T05:45:10.443Z,14.00
2019-05-23T05:47:39.008Z,13.90
2019-05-23T05:50:08.208Z,13.80
2019-05-23T05:52:37.509Z,13.60
2019-05-23T05:55:07.216Z,13.50
2019-05-23T05:57:35.992Z,13.40
2019-05-23T06:00:13.143Z,13.30
2019-05-23T06:02:41.430Z,13.20
2019-05-23T06:05:11.863Z,13.10
2019-05-23T06:07:41.928Z,13.00
2019-05-23T06:10:12.027Z,13.00
2019-05-23T06:12:40.497Z,13.00
2019-05-23T06:15:09.363Z,12.90
2019-05-23T06:17:38.668Z,13.00
2019-05-23T06:20:07.172Z,12.90
2019-05-23T06:22:36.628Z,13.00
2019-05-23T06:25:07.191Z,13.10
2019-05-23T06:27:35.683Z,13.20
2019-05-23T06:30:08.908Z,13.20
2019-05-23T06:32:38.879Z,13.30
2019-05-23T06:35:07.766Z,13.40
2019-05-23T06:37:36.272Z,13.50
2019-05-23T06:40:06.678Z,13.50
2019-05-23T06:42:35.367Z,13.60
2019-05-23T06:45:04.992Z,13.70
2019-05-23T06:47:33.436Z,13.70
2019-05-23T06:50:01.894Z,13.80
2019-05-23T06:52:30.275Z,13.80
2019-05-23T06:54:59.806Z,13.90
2019-05-23T06:57:28.532Z,14.10
2019-05-23T06:59:56.957Z,14.10
2019-05-23T07:02:26.237Z,14.20
2019-05-23T07:04:54.667Z,14.40
2019-05-23T07:07:23.561Z,14.60
2019-05-23T07:09:52.008Z,14.80
2019-05-23T07:12:20.429Z,15.10
2019-05-23T07:14:48.855Z,15.30
2019-05-23T07:17:18.724Z,15.40
2019-05-23T07:19:47.137Z,15.40
2019-05-23T07:22:18.528Z,15.40
2019-05-23T07:24:57.517Z,15.50
2019-05-23T07:27:16.075Z,15.60
2019-05-23T07:29:44.930Z,15.70
2019-05-23T07:32:13.386Z,15.90
2019-05-23T07:34:41.811Z,16.10
2019-05-23T07:37:10.235Z,16.20
2019-05-23T07:39:38.851Z,16.40
2019-05-23T07:42:08.137Z,16.60
2019-05-23T07:44:48.043Z,16.90
2019-05-23T07:47:09.165Z,17.00
2019-05-23T07:49:37.653Z,17.00
2019-05-23T07:52:06.055Z,17.10
2019-05-23T07:54:36.147Z,17.20
2019-05-23T07:57:06.293Z,17.20
2019-05-23T07:59:35.071Z,17.20
2019-05-23T08:02:08.459Z,17.20
2019-05-23T08:04:37.251Z,17.10
2019-05-23T08:07:06.243Z,17.20
2019-05-23T08:09:34.968Z,17.20
2019-05-23T08:12:03.379Z,17.20
2019-05-23T08:14:32.267Z,17.20
2019-05-23T08:17:00.724Z,17.30
2019-05-23T08:19:29.130Z,17.30
2019-05-23T08:21:57.546Z,17.30
2019-05-23T08:24:26.023Z,17.20
2019-05-23T08:26:54.705Z,17.20
2019-05-23T08:29:26.124Z,17.20
2019-05-23T08:31:53.566Z,17.30
2019-05-23T08:34:40.181Z,17.30
2019-05-23T08:36:52.043Z,17.40
2019-05-23T08:39:22.160Z,17.50
2019-05-23T08:41:50.876Z,17.50
2019-05-23T08:44:19.446Z,17.60
2019-05-23T08:46:47.895Z,17.80
2019-05-23T08:49:16.653Z,18.00
2019-05-23T08:51:45.027Z,18.20
2019-05-23T08:54:13.458Z,18.40
2019-05-23T08:56:41.883Z,18.70
2019-05-23T08:59:10.863Z,19.00
2019-05-23T09:01:39.378Z,19.00
2019-05-23T09:04:08.475Z,19.10
2019-05-23T09:06:37.522Z,19.10
2019-05-23T09:09:27.852Z,19.10
2019-05-23T09:11:39.118Z,18.90
2019-05-23T09:14:09.100Z,18.90
2019-05-23T09:16:37.802Z,18.80
2019-05-23T09:19:06.223Z,18.80
2019-05-23T09:21:34.656Z,18.90
2019-05-23T09:24:03.232Z,19.00
2019-05-23T09:26:31.634Z,19.00
2019-05-23T09:29:00.606Z,19.00
2019-05-23T09:31:29.836Z,19.00
2019-05-23T09:33:58.266Z,18.90
2019-05-23T09:36:26.747Z,18.90
2019-05-23T09:38:55.215Z,19.00
2019-05-23T09:41:23.639Z,19.00
2019-05-23T09:43:52.054Z,19.10
2019-05-23T09:46:20.778Z,19.20
2019-05-23T09:48:49.215Z,19.40
2019-05-23T09:51:18.235Z,19.50
2019-05-23T09:53:47.685Z,19.60
2019-05-23T09:56:16.448Z,19.50
2019-05-23T09:58:44.834Z,19.60
2019-05-23T10:01:13.542Z,19.60
2019-05-23T10:03:41.965Z,19.70
2019-05-23T10:06:10.382Z,19.70
2019-05-23T10:08:38.853Z,19.80
2019-05-23T10:11:08.044Z,19.90
2019-05-23T10:13:39.445Z,19.90
2019-05-23T10:16:08.202Z,20.00
2019-05-23T10:18:36.618Z,20.00
2019-05-23T10:21:05.302Z,20.00
2019-05-23T10:23:33.828Z,20.00
2019-05-23T10:26:02.476Z,19.90
2019-05-23T10:28:30.898Z,19.80
2019-05-23T10:30:59.356Z,19.90
2019-05-23T10:33:27.774Z,19.90
2019-05-23T10:36:00.259Z,19.90
2019-05-23T10:38:29.298Z,20.00
2019-05-23T10:40:56.349Z,20.00
2019-05-23T10:43:24.773Z,20.00
2019-05-23T10:45:53.233Z,20.00
2019-05-23T10:48:22.527Z,20.10
2019-05-23T10:50:51.011Z,20.30
2019-05-23T10:53:19.547Z,20.30
2019-05-23T10:55:48.000Z,20.50
2019-05-23T10:58:17.234Z,20.70
2019-05-23T11:00:47.520Z,20.70
2019-05-23T11:03:16.022Z,20.60
2019-05-23T11:05:44.713Z,20.60
2019-05-23T11:08:14.250Z,20.60
2019-05-23T11:10:42.667Z,20.60
2019-05-23T11:13:11.087Z,20.50
2019-05-23T11:15:39.526Z,20.30
2019-05-23T11:18:08.519Z,20.10
2019-05-23T11:20:37.324Z,20.10
2019-05-23T11:23:05.887Z,20.00
2019-05-23T11:25:34.583Z,19.80
2019-05-23T11:28:03.149Z,19.50
2019-05-23T11:30:33.183Z,19.40
2019-05-23T11:33:01.594Z,19.40
2019-05-23T11:35:30.384Z,19.30
2019-05-23T11:37:58.902Z,19.10
2019-05-23T11:40:27.402Z,19.40
2019-05-23T11:42:55.811Z,19.60
2019-05-23T11:45:25.928Z,19.50
2019-05-23T11:47:54.370Z,19.40
2019-05-23T11:50:22.878Z,19.60
2019-05-23T11:52:51.401Z,19.80
2019-05-23T11:55:19.972Z,19.90
2019-05-23T11:57:48.434Z,20.00
2019-05-23T12:00:18.930Z,20.20
2019-05-23T12:02:48.333Z,20.30
2019-05-23T12:05:22.530Z,20.60
2019-05-23T12:07:51.247Z,20.80
2019-05-23T12:10:20.050Z,20.90
2019-05-23T12:12:48.479Z,21.10
2019-05-23T12:15:18.578Z,21.10
2019-05-23T12:17:47.281Z,21.10
2019-05-23T12:20:16.006Z,21.10
2019-05-23T12:22:44.705Z,20.90
2019-05-23T12:25:22.180Z,21.10
2019-05-23T12:27:43.798Z,21.20
2019-05-23T12:30:14.105Z,21.20
2019-05-23T12:32:42.587Z,21.20
2019-05-23T12:35:12.179Z,21.30
2019-05-23T12:37:40.851Z,21.40
2019-05-23T12:40:11.387Z,21.60
2019-05-23T12:42:39.813Z,21.80
2019-05-23T12:45:08.686Z,21.80
2019-05-23T12:47:44.741Z,21.60
2019-05-23T12:50:14.838Z,21.50
2019-05-23T12:52:43.249Z,21.30
2019-05-23T12:55:11.812Z,21.30
2019-05-23T12:57:40.667Z,21.50
2019-05-23T13:00:28.036Z,21.60
2019-05-23T13:02:56.645Z,21.70
2019-05-23T13:05:25.434Z,21.30
2019-05-23T13:07:53.882Z,20.90
2019-05-23T13:10:24.663Z,20.60
2019-05-23T13:12:52.558Z,20.30
2019-05-23T13:15:21.278Z,20.10
2019-05-23T13:17:49.710Z,20.30
2019-05-23T13:20:18.153Z,20.50
2019-05-23T13:22:46.837Z,20.50
2019-05-23T13:25:16.410Z,20.80
2019-05-23T13:27:44.814Z,21.10
2019-05-23T13:30:13.388Z,21.30
2019-05-23T13:32:41.847Z,21.30
2019-05-23T13:35:10.634Z,21.40
2019-05-23T13:37:53.118Z,21.60
2019-05-23T13:40:09.894Z,21.70
2019-05-23T13:42:38.471Z,21.80
2019-05-23T13:45:07.054Z,21.80
2019-05-23T13:47:37.957Z,21.70
2019-05-23T13:50:08.172Z,21.50
2019-05-23T13:52:37.064Z,21.60
2019-05-23T13:55:08.761Z,21.60
2019-05-23T13:57:37.506Z,21.80
2019-05-23T14:00:06.561Z,22.00
2019-05-23T14:02:35.023Z,22.00
2019-05-23T14:05:04.889Z,22.10
2019-05-23T14:07:33.966Z,22.20
2019-05-23T14:10:02.441Z,22.30
2019-05-23T14:12:30.854Z,21.90
2019-05-23T14:14:59.276Z,21.50
2019-05-23T14:17:35.587Z,21.10
2019-05-23T14:20:05.293Z,20.80
2019-05-23T14:22:35.342Z,20.60
2019-05-23T14:25:03.925Z,20.60
2019-05-23T14:27:43.987Z,20.70
2019-05-23T14:30:30.762Z,20.90
2019-05-23T14:33:01.024Z,20.90
2019-05-23T14:35:33.893Z,20.70
2019-05-23T14:38:04.047Z,20.70
2019-05-23T14:40:32.533Z,20.70
2019-05-23T14:43:02.668Z,20.30
2019-05-23T14:45:35.538Z,20.10
2019-05-23T14:48:11.778Z,19.90
2019-05-23T14:50:40.497Z,19.70
2019-05-23T14:53:13.795Z,19.50
2019-05-23T14:55:42.210Z,19.40
2019-05-23T14:58:11.029Z,19.40
2019-05-23T15:00:39.533Z,19.40
2019-05-23T15:03:08.014Z,19.40
2019-05-23T15:05:36.489Z,19.20
2019-05-23T15:08:04.883Z,19.20
2019-05-23T15:10:33.742Z,19.10
2019-05-23T15:13:02.125Z,19.10
2019-05-23T15:15:30.626Z,19.10
2019-05-23T15:17:59.468Z,19.10
2019-05-23T15:20:49.612Z,19.20
2019-05-23T15:23:09.352Z,19.20
2019-05-23T15:25:37.761Z,19.30
2019-05-23T15:28:06.572Z,19.10
2019-05-23T15:30:35.051Z,19.00
2019-05-23T15:33:03.548Z,19.00
2019-05-23T15:35:33.663Z,19.00
2019-05-23T15:38:02.113Z,19.10
2019-05-23T15:40:31.683Z,19.20
2019-05-23T15:43:00.121Z,19.20
2019-05-23T15:45:29.196Z,19.30
2019-05-23T15:47:57.676Z,19.20
2019-05-23T15:50:37.066Z,19.10
2019-05-23T15:53:07.124Z,19.00
2019-05-23T15:55:40.164Z,19.10
2019-05-23T15:58:15.755Z,19.10
2019-05-23T16:00:58.052Z,19.00
2019-05-23T16:03:37.397Z,19.10
2019-05-23T16:06:07.453Z,19.20
2019-05-23T16:08:36.670Z,19.30
2019-05-23T16:11:05.691Z,19.20
2019-05-23T16:13:34.154Z,19.20
2019-05-23T16:16:03.044Z,19.00
2019-05-23T16:18:32.240Z,18.90
2019-05-23T16:21:00.821Z,18.90
2019-05-23T16:23:29.240Z,19.00
2019-05-23T16:25:57.701Z,19.30
2019-05-23T16:28:26.485Z,19.60
2019-05-23T16:30:54.895Z,19.70
2019-05-23T16:33:24.956Z,19.80
2019-05-23T16:35:53.451Z,19.90
2019-05-23T16:38:21.869Z,20.10
2019-05-23T16:40:50.402Z,20.10
2019-05-23T16:43:18.848Z,20.00
2019-05-23T16:45:47.656Z,20.00
2019-05-23T16:48:16.433Z,19.90
2019-05-23T16:50:44.893Z,19.80
2019-05-23T16:53:14.378Z,19.80
2019-05-23T16:55:56.835Z,19.80
2019-05-23T16:58:26.896Z,19.90
2019-05-23T17:01:03.274Z,19.90
2019-05-23T17:03:36.088Z,19.90
2019-05-23T17:06:06.158Z,19.60
2019-05-23T17:08:39.066Z,19.30
2019-05-23T17:11:14.947Z,19.10
2019-05-23T17:13:45.053Z,19.00
2019-05-23T17:16:16.138Z,19.00
2019-05-23T17:18:46.193Z,19.00
2019-05-23T17:21:31.650Z,18.80
2019-05-23T17:24:16.467Z,18.60
2019-05-23T17:26:58.932Z,18.50
2019-05-23T17:29:47.008Z,18.50
2019-05-23T17:32:20.184Z,18.50
2019-05-23T17:34:48.595Z,18.50
2019-05-23T17:37:17.501Z,18.40
2019-05-23T17:39:45.965Z,18.30
2019-05-23T17:42:14.381Z,18.20
2019-05-23T17:44:42.802Z,18.00
2019-05-23T17:47:11.233Z,18.00
2019-05-23T17:49:39.735Z,18.00
2019-05-23T17:52:09.191Z,18.00
2019-05-23T17:54:37.623Z,17.90
2019-05-23T17:57:06.214Z,17.80
2019-05-23T17:59:34.632Z,17.70
2019-05-23T18:02:04.115Z,17.70
2019-05-23T18:04:33.107Z,17.70
2019-05-23T18:07:01.519Z,17.60
2019-05-23T18:09:30.239Z,17.50
2019-05-23T18:11:58.995Z,17.60
2019-05-23T18:14:27.468Z,17.60
2019-05-23T18:16:56.058Z,17.50
2019-05-23T18:19:24.832Z,17.20
2019-05-23T18:21:54.038Z,17.20
2019-05-23T18:24:23.209Z,17.30
2019-05-23T18:26:51.705Z,17.20
2019-05-23T18:29:20.115Z,17.20
2019-05-23T18:31:50.211Z,17.10
2019-05-23T18:34:19.977Z,17.00
2019-05-23T18:36:48.675Z,16.90
2019-05-23T18:39:18.771Z,16.80
2019-05-23T18:41:47.187Z,16.80
2019-05-23T18:44:15.678Z,16.70
2019-05-23T18:46:48.849Z,16.70
2019-05-23T18:49:18.798Z,16.60
2019-05-23T18:51:47.210Z,16.60
2019-05-23T18:54:15.917Z,16.50
2019-05-23T18:56:44.441Z,16.40
2019-05-23T18:59:13.600Z,16.20
2019-05-23T19:01:42.332Z,16.00
2019-05-23T19:04:11.232Z,16.10
2019-05-23T19:06:39.727Z,16.00
2019-05-23T19:09:10.431Z,15.90
2019-05-23T19:11:39.003Z,15.80
2019-05-23T19:14:07.451Z,15.70
2019-05-23T19:16:36.373Z,15.70
2019-05-23T19:19:06.051Z,15.50
2019-05-23T19:21:35.012Z,15.40
2019-05-23T19:24:03.942Z,15.30
2019-05-23T19:26:32.472Z,15.20
2019-05-23T19:29:01.331Z,15.10
2019-05-23T19:31:30.040Z,15.20
2019-05-23T19:33:58.751Z,15.10
2019-05-23T19:36:27.287Z,15.00
2019-05-23T19:38:55.749Z,14.90
2019-05-23T19:41:37.013Z,14.80
2019-05-23T19:43:54.902Z,14.80
2019-05-23T19:46:23.528Z,14.70
2019-05-23T19:48:52.928Z,14.70
2019-05-23T19:51:22.197Z,14.60
2019-05-23T19:53:51.357Z,14.50
2019-05-23T19:56:20.023Z,14.40
2019-05-23T19:58:48.645Z,14.40
2019-05-23T20:01:18.015Z,14.20
2019-05-23T20:03:46.839Z,14.20
2019-05-23T20:06:16.343Z,14.10
2019-05-23T20:08:45.758Z,14.00
2019-05-23T20:11:14.737Z,14.10
2019-05-23T20:13:43.367Z,14.10
2019-05-23T20:16:11.869Z,14.00
2019-05-23T20:18:40.346Z,13.90
2019-05-23T20:21:08.833Z,13.80
2019-05-23T20:23:37.410Z,13.70
2019-05-23T20:26:08.569Z,13.60
2019-05-23T20:28:39.785Z,13.60
2019-05-23T20:31:08.099Z,13.60
2019-05-23T20:33:36.593Z,13.40
2019-05-23T20:36:06.644Z,13.30
2019-05-23T20:38:35.148Z,13.20
2019-05-23T20:41:03.798Z,13.10
2019-05-23T20:43:32.254Z,13.10
2019-05-23T20:46:00.765Z,13.00
2019-05-23T20:48:29.168Z,13.10
2019-05-23T20:50:57.649Z,13.00
2019-05-23T20:53:27.597Z,12.90
2019-05-23T20:55:56.422Z,12.90
2019-05-23T20:58:24.962Z,12.90
2019-05-23T21:00:55.168Z,12.90
2019-05-23T21:03:25.108Z,12.80
2019-05-23T21:05:53.576Z,12.80
2019-05-23T21:08:22.097Z,12.70
2019-05-23T21:10:50.522Z,12.70
2019-05-23T21:13:19.068Z,12.70
2019-05-23T21:15:47.664Z,12.50
2019-05-23T21:18:16.145Z,12.30
2019-05-23T21:20:44.677Z,12.10
2019-05-23T21:23:13.360Z,12.00
2019-05-23T21:25:43.469Z,12.00
2019-05-23T21:28:11.937Z,12.00
2019-05-23T21:30:40.488Z,11.90
2019-05-23T21:33:08.970Z,11.90
2019-05-23T21:35:37.470Z,11.80
2019-05-23T21:38:05.994Z,11.80
2019-05-23T21:40:37.731Z,11.60
2019-05-23T21:43:06.216Z,11.40
2019-05-23T21:45:34.711Z,11.40
2019-05-23T21:48:05.032Z,11.40
2019-05-23T21:50:33.664Z,11.40
2019-05-23T21:53:02.757Z,11.40
2019-05-23T21:55:36.879Z,11.20
2019-05-23T21:58:06.212Z,11.10
2019-05-23T22:01:00.383Z,11.10
2019-05-23T22:03:30.435Z,11.00
2019-05-23T22:05:58.868Z,11.00
2019-05-23T22:08:27.596Z,11.00
2019-05-23T22:10:57.047Z,11.00
2019-05-23T22:13:25.496Z,11.10
2019-05-23T22:15:55.578Z,10.90
2019-05-23T22:18:25.087Z,10.70
2019-05-23T22:20:53.499Z,10.60
2019-05-23T22:23:21.986Z,10.50
2019-05-23T22:25:50.416Z,10.50
2019-05-23T22:28:19.424Z,10.40
2019-05-23T22:30:48.087Z,10.40
2019-05-23T22:33:18.398Z,10.30
2019-05-23T22:35:46.812Z,10.20
2019-05-23T22:38:15.261Z,10.20
2019-05-23T22:40:43.768Z,10.10
2019-05-23T22:43:20.766Z,10.00
2019-05-23T22:45:42.388Z,9.90
2019-05-23T22:48:10.814Z,9.90
2019-05-23T22:50:39.240Z,9.90
2019-05-23T22:53:07.698Z,9.90
2019-05-23T22:55:36.119Z,9.80
2019-05-23T22:58:04.726Z,9.70
2019-05-23T23:00:37.519Z,9.60
2019-05-23T23:03:05.944Z,9.60
2019-05-23T23:05:34.491Z,9.60
2019-05-23T23:08:02.898Z,9.60
2019-05-23T23:10:31.584Z,9.50
2019-05-23T23:13:00.259Z,9.40
2019-05-23T23:15:30.482Z,9.40
2019-05-23T23:17:58.900Z,9.40
2019-05-23T23:20:27.381Z,9.30
2019-05-23T23:22:55.835Z,9.20
2019-05-23T23:25:24.249Z,9.30
2019-05-23T23:27:52.657Z,9.30
2019-05-23T23:30:23.012Z,9.20
2019-05-23T23:32:51.449Z,9.10
2019-05-23T23:35:20.144Z,9.10
2019-05-23T23:37:48.871Z,9.00
2019-05-23T23:40:17.577Z,9.00
2019-05-23T23:42:46.271Z,9.00
2019-05-23T23:45:32.851Z,9.00
2019-05-23T23:48:19.377Z,9.00
2019-05-23T23:51:06.034Z,9.00
2019-05-23T23:53:52.796Z,9.00
2019-05-23T23:56:39.768Z,9.00
2019-05-23T23:59:07.769Z,8.80
